sensor_id;sensor_type;location;lat;lon;timestamp;temperature;humidity
47382;DHT22;33128;51.580;5.170;2023-03-14T00:01:58;13.20;99.90
47382;DHT22;33128;51.580;5.170;2023-03-14T00:04:24;13.30;99.90
47382;DHT22;33128;51.580;5.170;2023-03-14T00:06:49;13.20;99.90
47382;DHT22;33128;51.580;5.170;2023-03-14T00:09:16;13.10;99.90
47382;DHT22;33128;51.580;5.170;2023-03-14T00:11:42;13.20;99.90
47382;DHT22;33128;51.580;5.170;2023-03-14T00:14:07;13.20;99.90
47382;DHT22;33128;51.580;5.170;2023-03-14T00:16:33;13.20;99.90
47382;DHT22;33128;51.580;5.170;2023-03-14T00:18:59;13.30;99.90
47382;DHT22;33128;51.580;5.170;2023-03-14T00:21:25;13.40;99.90
47382;DHT22;33128;51.580;5.170;2023-03-14T00:23:51;13.30;99.90
47382;DHT22;33128;51.580;5.170;2023-03-14T00:26:19;13.30;99.90
47382;DHT22;33128;51.580;5.170;2023-03-14T00:28:45;13.30;99.90
47382;DHT22;33128;51.580;5.170;2023-03-14T00:31:13;13.30;99.90
47382;DHT22;33128;51.580;5.170;2023-03-14T00:33:39;13.10;99.90
47382;DHT22;33128;51.580;5.170;2023-03-14T00:36:08;13.20;99.90
47382;DHT22;33128;51.580;5.170;2023-03-14T00:38:34;13.10;99.90
47382;DHT22;33128;51.580;5.170;2023-03-14T00:41:12;13.20;99.90
47382;DHT22;33128;51.580;5.170;2023-03-14T00:43:38;13.10;99.90
47382;DHT22;33128;51.580;5.170;2023-03-14T00:46:04;13.20;99.90
47382;DHT22;33128;51.580;5.170;2023-03-14T00:48:30;13.00;99.90
47382;DHT22;33128;51.580;5.170;2023-03-14T00:50:57;13.10;99.90
47382;DHT22;33128;51.580;5.170;2023-03-14T00:53:23;13.00;99.90
47382;DHT22;33128;51.580;5.170;2023-03-14T00:55:49;13.10;99.90
47382;DHT22;33128;51.580;5.170;2023-03-14T00:58:16;13.00;99.90
47382;DHT22;33128;51.580;5.170;2023-03-14T01:00:43;13.00;99.90
47382;DHT22;33128;51.580;5.170;2023-03-14T01:03:10;13.10;99.90
47382;DHT22;33128;51.580;5.170;2023-03-14T01:05:37;13.10;99.90
47382;DHT22;33128;51.580;5.170;2023-03-14T01:08:03;13.00;99.90
47382;DHT22;33128;51.580;5.170;2023-03-14T01:10:29;13.10;99.90
47382;DHT22;33128;51.580;5.170;2023-03-14T01:12:55;13.10;99.90
47382;DHT22;33128;51.580;5.170;2023-03-14T01:15:21;13.00;99.90
47382;DHT22;33128;51.580;5.170;2023-03-14T01:17:46;13.00;99.90
47382;DHT22;33128;51.580;5.170;2023-03-14T01:20:14;12.90;99.90
47382;DHT22;33128;51.580;5.170;2023-03-14T01:22:46;13.00;99.90
47382;DHT22;33128;51.580;5.170;2023-03-14T01:25:14;13.10;99.90
47382;DHT22;33128;51.580;5.170;2023-03-14T01:27:40;13.10;99.90
47382;DHT22;33128;51.580;5.170;2023-03-14T01:30:06;13.00;99.90
47382;DHT22;33128;51.580;5.170;2023-03-14T01:32:34;13.00;99.90
47382;DHT22;33128;51.580;5.170;2023-03-14T01:35:01;13.20;99.90
47382;DHT22;33128;51.580;5.170;2023-03-14T01:37:29;13.40;99.90
47382;DHT22;33128;51.580;5.170;2023-03-14T01:39:55;13.20;99.90
47382;DHT22;33128;51.580;5.170;2023-03-14T01:42:20;13.40;99.90
47382;DHT22;33128;51.580;5.170;2023-03-14T01:44:55;13.40;99.90
47382;DHT22;33128;51.580;5.170;2023-03-14T01:47:21;13.30;99.90
47382;DHT22;33128;51.580;5.170;2023-03-14T01:52:31;13.10;99.90
47382;DHT22;33128;51.580;5.170;2023-03-14T01:55:14;13.20;99.90
47382;DHT22;33128;51.580;5.170;2023-03-14T01:57:50;13.40;99.90
47382;DHT22;33128;51.580;5.170;2023-03-14T02:00:20;13.30;99.90
47382;DHT22;33128;51.580;5.170;2023-03-14T02:02:50;13.10;99.90
47382;DHT22;33128;51.580;5.170;2023-03-14T02:05:19;13.10;99.90
47382;DHT22;33128;51.580;5.170;2023-03-14T02:07:52;12.90;99.90
47382;DHT22;33128;51.580;5.170;2023-03-14T02:10:21;12.80;99.90
47382;DHT22;33128;51.580;5.170;2023-03-14T02:12:48;12.80;99.90
47382;DHT22;33128;51.580;5.170;2023-03-14T02:15:14;12.80;99.90
47382;DHT22;33128;51.580;5.170;2023-03-14T02:17:44;12.80;99.90
47382;DHT22;33128;51.580;5.170;2023-03-14T02:20:15;12.70;99.90
47382;DHT22;33128;51.580;5.170;2023-03-14T02:22:45;12.70;99.90
47382;DHT22;33128;51.580;5.170;2023-03-14T02:28:07;12.80;99.90
47382;DHT22;33128;51.580;5.170;2023-03-14T02:30:32;12.70;99.90
47382;DHT22;33128;51.580;5.170;2023-03-14T02:33:13;12.70;99.90
47382;DHT22;33128;51.580;5.170;2023-03-14T02:35:59;12.80;99.90
47382;DHT22;33128;51.580;5.170;2023-03-14T02:41:17;12.70;99.90
47382;DHT22;33128;51.580;5.170;2023-03-14T02:43:44;12.70;99.90
47382;DHT22;33128;51.580;5.170;2023-03-14T02:46:12;12.70;99.90
47382;DHT22;33128;51.580;5.170;2023-03-14T02:48:46;12.80;99.90
47382;DHT22;33128;51.580;5.170;2023-03-14T02:51:13;12.80;99.90
47382;DHT22;33128;51.580;5.170;2023-03-14T02:53:40;12.80;99.90
47382;DHT22;33128;51.580;5.170;2023-03-14T02:56:09;12.90;99.90
47382;DHT22;33128;51.580;5.170;2023-03-14T02:58:35;12.80;99.90
47382;DHT22;33128;51.580;5.170;2023-03-14T03:01:01;12.70;99.90
47382;DHT22;33128;51.580;5.170;2023-03-14T03:03:27;12.90;99.90
47382;DHT22;33128;51.580;5.170;2023-03-14T03:05:54;12.70;99.90
47382;DHT22;33128;51.580;5.170;2023-03-14T03:08:24;12.70;99.90
47382;DHT22;33128;51.580;5.170;2023-03-14T03:10:51;12.70;99.90
47382;DHT22;33128;51.580;5.170;2023-03-14T03:13:17;12.40;99.90
47382;DHT22;33128;51.580;5.170;2023-03-14T03:15:43;12.10;99.90
47382;DHT22;33128;51.580;5.170;2023-03-14T03:18:08;12.10;99.90
47382;DHT22;33128;51.580;5.170;2023-03-14T03:20:34;12.10;99.90
47382;DHT22;33128;51.580;5.170;2023-03-14T03:23:00;12.00;99.90
47382;DHT22;33128;51.580;5.170;2023-03-14T03:25:25;11.90;99.90
47382;DHT22;33128;51.580;5.170;2023-03-14T03:27:51;11.90;99.90
47382;DHT22;33128;51.580;5.170;2023-03-14T03:30:17;12.00;99.90
47382;DHT22;33128;51.580;5.170;2023-03-14T03:32:42;11.90;99.90
47382;DHT22;33128;51.580;5.170;2023-03-14T03:35:08;11.80;99.90
47382;DHT22;33128;51.580;5.170;2023-03-14T03:37:34;11.80;99.90
47382;DHT22;33128;51.580;5.170;2023-03-14T03:39:59;11.90;99.90
47382;DHT22;33128;51.580;5.170;2023-03-14T03:42:29;11.90;99.90
47382;DHT22;33128;51.580;5.170;2023-03-14T03:44:54;11.70;99.90
47382;DHT22;33128;51.580;5.170;2023-03-14T03:47:20;11.80;99.90
47382;DHT22;33128;51.580;5.170;2023-03-14T03:49:46;11.70;99.90
47382;DHT22;33128;51.580;5.170;2023-03-14T03:52:11;11.70;99.90
47382;DHT22;33128;51.580;5.170;2023-03-14T03:54:37;11.80;99.90
47382;DHT22;33128;51.580;5.170;2023-03-14T03:57:02;11.80;99.90
47382;DHT22;33128;51.580;5.170;2023-03-14T03:59:28;11.80;99.90
47382;DHT22;33128;51.580;5.170;2023-03-14T04:01:53;11.90;99.90
47382;DHT22;33128;51.580;5.170;2023-03-14T04:04:19;11.90;99.90
47382;DHT22;33128;51.580;5.170;2023-03-14T04:06:44;11.90;99.90
47382;DHT22;33128;51.580;5.170;2023-03-14T04:09:10;11.70;99.90
47382;DHT22;33128;51.580;5.170;2023-03-14T04:11:39;11.80;99.90
47382;DHT22;33128;51.580;5.170;2023-03-14T04:14:04;11.70;99.90
47382;DHT22;33128;51.580;5.170;2023-03-14T04:16:30;11.70;99.90
47382;DHT22;33128;51.580;5.170;2023-03-14T04:18:57;11.60;99.90
47382;DHT22;33128;51.580;5.170;2023-03-14T04:21:23;11.50;99.90
47382;DHT22;33128;51.580;5.170;2023-03-14T04:23:48;11.50;99.90
47382;DHT22;33128;51.580;5.170;2023-03-14T04:26:14;11.70;99.90
47382;DHT22;33128;51.580;5.170;2023-03-14T04:28:39;11.70;99.90
47382;DHT22;33128;51.580;5.170;2023-03-14T04:31:09;11.70;99.90
47382;DHT22;33128;51.580;5.170;2023-03-14T04:33:35;11.70;99.90
47382;DHT22;33128;51.580;5.170;2023-03-14T04:36:01;11.70;99.90
47382;DHT22;33128;51.580;5.170;2023-03-14T04:38:27;11.50;99.90
47382;DHT22;33128;51.580;5.170;2023-03-14T04:40:52;11.60;99.90
47382;DHT22;33128;51.580;5.170;2023-03-14T04:43:18;11.50;99.90
47382;DHT22;33128;51.580;5.170;2023-03-14T04:45:43;11.70;99.90
47382;DHT22;33128;51.580;5.170;2023-03-14T04:48:09;11.60;99.90
47382;DHT22;33128;51.580;5.170;2023-03-14T04:50:34;11.60;99.90
47382;DHT22;33128;51.580;5.170;2023-03-14T04:53:00;11.70;99.90
47382;DHT22;33128;51.580;5.170;2023-03-14T04:55:25;11.50;99.90
47382;DHT22;33128;51.580;5.170;2023-03-14T04:57:51;11.60;99.90
47382;DHT22;33128;51.580;5.170;2023-03-14T05:00:16;11.60;99.90
47382;DHT22;33128;51.580;5.170;2023-03-14T05:02:44;11.50;99.90
47382;DHT22;33128;51.580;5.170;2023-03-14T05:05:10;11.50;99.90
47382;DHT22;33128;51.580;5.170;2023-03-14T05:07:36;11.40;99.90
47382;DHT22;33128;51.580;5.170;2023-03-14T05:10:02;11.30;99.90
47382;DHT22;33128;51.580;5.170;2023-03-14T05:12:27;11.40;99.90
47382;DHT22;33128;51.580;5.170;2023-03-14T05:14:53;11.40;99.90
47382;DHT22;33128;51.580;5.170;2023-03-14T05:17:19;11.50;99.90
47382;DHT22;33128;51.580;5.170;2023-03-14T05:19:45;11.40;99.90
47382;DHT22;33128;51.580;5.170;2023-03-14T05:22:11;11.40;99.90
47382;DHT22;33128;51.580;5.170;2023-03-14T05:24:37;11.50;99.90
47382;DHT22;33128;51.580;5.170;2023-03-14T05:27:04;12.00;99.90
47382;DHT22;33128;51.580;5.170;2023-03-14T05:29:30;12.20;99.90
47382;DHT22;33128;51.580;5.170;2023-03-14T05:31:56;12.30;99.90
47382;DHT22;33128;51.580;5.170;2023-03-14T05:34:21;12.30;99.90
47382;DHT22;33128;51.580;5.170;2023-03-14T05:36:47;12.40;99.90
47382;DHT22;33128;51.580;5.170;2023-03-14T05:39:12;12.40;99.90
47382;DHT22;33128;51.580;5.170;2023-03-14T05:41:38;12.40;99.90
47382;DHT22;33128;51.580;5.170;2023-03-14T05:44:04;12.50;99.90
47382;DHT22;33128;51.580;5.170;2023-03-14T05:46:30;12.50;99.90
47382;DHT22;33128;51.580;5.170;2023-03-14T05:48:59;12.50;99.90
47382;DHT22;33128;51.580;5.170;2023-03-14T05:51:25;12.50;99.90
47382;DHT22;33128;51.580;5.170;2023-03-14T05:53:51;12.50;99.90
47382;DHT22;33128;51.580;5.170;2023-03-14T05:56:17;12.50;99.90
47382;DHT22;33128;51.580;5.170;2023-03-14T05:58:42;12.50;99.90
47382;DHT22;33128;51.580;5.170;2023-03-14T06:01:08;12.40;99.90
47382;DHT22;33128;51.580;5.170;2023-03-14T06:03:34;12.60;99.90
47382;DHT22;33128;51.580;5.170;2023-03-14T06:06:00;12.50;99.90
47382;DHT22;33128;51.580;5.170;2023-03-14T06:08:26;12.40;99.90
47382;DHT22;33128;51.580;5.170;2023-03-14T06:10:52;12.50;99.90
47382;DHT22;33128;51.580;5.170;2023-03-14T06:13:18;12.50;99.90
47382;DHT22;33128;51.580;5.170;2023-03-14T06:15:44;12.50;99.90
47382;DHT22;33128;51.580;5.170;2023-03-14T06:18:10;12.50;99.90
47382;DHT22;33128;51.580;5.170;2023-03-14T06:20:36;12.40;99.90
47382;DHT22;33128;51.580;5.170;2023-03-14T06:23:08;12.50;99.90
47382;DHT22;33128;51.580;5.170;2023-03-14T06:25:35;12.40;99.90
47382;DHT22;33128;51.580;5.170;2023-03-14T06:28:01;12.30;99.90
47382;DHT22;33128;51.580;5.170;2023-03-14T06:30:27;12.40;99.90
47382;DHT22;33128;51.580;5.170;2023-03-14T06:32:53;12.40;99.90
47382;DHT22;33128;51.580;5.170;2023-03-14T06:35:18;12.50;99.90
47382;DHT22;33128;51.580;5.170;2023-03-14T06:37:44;12.40;99.90
47382;DHT22;33128;51.580;5.170;2023-03-14T06:40:11;12.40;99.90
47382;DHT22;33128;51.580;5.170;2023-03-14T06:42:39;12.40;99.90
47382;DHT22;33128;51.580;5.170;2023-03-14T06:45:05;12.40;99.90
47382;DHT22;33128;51.580;5.170;2023-03-14T06:47:31;12.50;99.90
47382;DHT22;33128;51.580;5.170;2023-03-14T06:49:56;12.50;99.90
47382;DHT22;33128;51.580;5.170;2023-03-14T06:52:22;12.40;99.90
47382;DHT22;33128;51.580;5.170;2023-03-14T06:54:47;12.30;99.90
47382;DHT22;33128;51.580;5.170;2023-03-14T06:57:13;12.20;99.90
47382;DHT22;33128;51.580;5.170;2023-03-14T06:59:39;12.30;99.90
47382;DHT22;33128;51.580;5.170;2023-03-14T07:02:13;12.30;99.90
47382;DHT22;33128;51.580;5.170;2023-03-14T07:04:39;12.30;99.90
47382;DHT22;33128;51.580;5.170;2023-03-14T07:07:05;13.10;99.90
47382;DHT22;33128;51.580;5.170;2023-03-14T07:09:31;13.70;99.90
47382;DHT22;33128;51.580;5.170;2023-03-14T07:12:00;14.10;99.90
47382;DHT22;33128;51.580;5.170;2023-03-14T07:14:26;14.30;99.90
47382;DHT22;33128;51.580;5.170;2023-03-14T07:16:51;14.30;99.90
47382;DHT22;33128;51.580;5.170;2023-03-14T07:19:17;14.30;99.90
47382;DHT22;33128;51.580;5.170;2023-03-14T07:21:46;14.20;99.90
47382;DHT22;33128;51.580;5.170;2023-03-14T07:24:11;14.10;99.90
47382;DHT22;33128;51.580;5.170;2023-03-14T07:26:38;14.00;99.90
47382;DHT22;33128;51.580;5.170;2023-03-14T07:29:03;14.00;99.90
47382;DHT22;33128;51.580;5.170;2023-03-14T07:31:30;14.00;99.90
47382;DHT22;33128;51.580;5.170;2023-03-14T07:33:55;14.00;99.90
47382;DHT22;33128;51.580;5.170;2023-03-14T07:36:21;14.00;99.90
47382;DHT22;33128;51.580;5.170;2023-03-14T07:38:47;14.10;99.90
47382;DHT22;33128;51.580;5.170;2023-03-14T07:41:13;14.10;99.90
47382;DHT22;33128;51.580;5.170;2023-03-14T07:43:39;14.10;99.90
47382;DHT22;33128;51.580;5.170;2023-03-14T07:46:05;14.20;99.90
47382;DHT22;33128;51.580;5.170;2023-03-14T07:48:30;14.10;99.90
47382;DHT22;33128;51.580;5.170;2023-03-14T07:50:56;14.10;99.90
47382;DHT22;33128;51.580;5.170;2023-03-14T07:53:23;14.10;99.90
47382;DHT22;33128;51.580;5.170;2023-03-14T07:55:50;14.10;99.90
47382;DHT22;33128;51.580;5.170;2023-03-14T07:58:16;14.10;99.90
47382;DHT22;33128;51.580;5.170;2023-03-14T08:00:41;14.10;99.90
47382;DHT22;33128;51.580;5.170;2023-03-14T08:03:08;14.10;99.90
47382;DHT22;33128;51.580;5.170;2023-03-14T08:05:35;14.20;99.90
47382;DHT22;33128;51.580;5.170;2023-03-14T08:08:00;14.20;99.90
47382;DHT22;33128;51.580;5.170;2023-03-14T08:10:26;14.20;99.90
47382;DHT22;33128;51.580;5.170;2023-03-14T08:12:55;14.30;99.90
47382;DHT22;33128;51.580;5.170;2023-03-14T08:15:22;14.30;99.90
47382;DHT22;33128;51.580;5.170;2023-03-14T08:17:48;14.30;99.90
47382;DHT22;33128;51.580;5.170;2023-03-14T08:20:23;14.30;99.90
47382;DHT22;33128;51.580;5.170;2023-03-14T08:22:49;14.30;99.90
47382;DHT22;33128;51.580;5.170;2023-03-14T08:25:15;14.30;99.90
47382;DHT22;33128;51.580;5.170;2023-03-14T08:27:41;14.30;99.90
47382;DHT22;33128;51.580;5.170;2023-03-14T08:30:10;14.20;99.90
47382;DHT22;33128;51.580;5.170;2023-03-14T08:32:36;14.30;99.90
47382;DHT22;33128;51.580;5.170;2023-03-14T08:35:03;14.30;99.90
47382;DHT22;33128;51.580;5.170;2023-03-14T08:37:30;14.40;99.90
47382;DHT22;33128;51.580;5.170;2023-03-14T08:39:56;14.60;99.90
47382;DHT22;33128;51.580;5.170;2023-03-14T08:42:21;15.50;99.90
47382;DHT22;33128;51.580;5.170;2023-03-14T08:44:47;16.30;99.90
47382;DHT22;33128;51.580;5.170;2023-03-14T08:47:12;16.80;99.90
47382;DHT22;33128;51.580;5.170;2023-03-14T08:49:39;17.20;99.90
47382;DHT22;33128;51.580;5.170;2023-03-14T08:52:05;17.80;99.90
47382;DHT22;33128;51.580;5.170;2023-03-14T08:54:31;18.10;99.90
47382;DHT22;33128;51.580;5.170;2023-03-14T08:56:57;18.30;99.90
47382;DHT22;33128;51.580;5.170;2023-03-14T08:59:23;18.50;99.90
47382;DHT22;33128;51.580;5.170;2023-03-14T09:01:50;18.50;99.90
47382;DHT22;33128;51.580;5.170;2023-03-14T09:04:15;18.30;99.90
47382;DHT22;33128;51.580;5.170;2023-03-14T09:06:41;18.20;99.90
47382;DHT22;33128;51.580;5.170;2023-03-14T09:09:07;17.90;99.90
47382;DHT22;33128;51.580;5.170;2023-03-14T09:11:33;17.90;99.90
47382;DHT22;33128;51.580;5.170;2023-03-14T09:13:59;17.80;99.90
47382;DHT22;33128;51.580;5.170;2023-03-14T09:16:24;17.70;99.90
47382;DHT22;33128;51.580;5.170;2023-03-14T09:18:50;17.70;99.90
47382;DHT22;33128;51.580;5.170;2023-03-14T09:21:20;17.70;99.90
47382;DHT22;33128;51.580;5.170;2023-03-14T09:23:45;17.70;99.90
47382;DHT22;33128;51.580;5.170;2023-03-14T09:26:11;17.70;99.90
47382;DHT22;33128;51.580;5.170;2023-03-14T09:28:37;17.70;99.90
47382;DHT22;33128;51.580;5.170;2023-03-14T09:31:10;17.80;99.90
47382;DHT22;33128;51.580;5.170;2023-03-14T09:33:36;17.90;99.90
47382;DHT22;33128;51.580;5.170;2023-03-14T09:36:02;18.10;99.90
47382;DHT22;33128;51.580;5.170;2023-03-14T09:38:28;18.20;99.90
47382;DHT22;33128;51.580;5.170;2023-03-14T09:40:55;18.40;99.90
47382;DHT22;33128;51.580;5.170;2023-03-14T09:43:24;18.50;99.90
47382;DHT22;33128;51.580;5.170;2023-03-14T09:45:51;18.50;99.90
47382;DHT22;33128;51.580;5.170;2023-03-14T09:48:21;18.50;99.90
47382;DHT22;33128;51.580;5.170;2023-03-14T09:50:51;18.60;99.90
47382;DHT22;33128;51.580;5.170;2023-03-14T09:53:19;18.80;99.90
47382;DHT22;33128;51.580;5.170;2023-03-14T09:55:47;19.00;99.90
47382;DHT22;33128;51.580;5.170;2023-03-14T09:58:18;19.10;99.90
47382;DHT22;33128;51.580;5.170;2023-03-14T10:00:44;19.20;99.90
47382;DHT22;33128;51.580;5.170;2023-03-14T10:03:24;19.40;99.90
47382;DHT22;33128;51.580;5.170;2023-03-14T10:05:50;19.50;99.90
47382;DHT22;33128;51.580;5.170;2023-03-14T10:08:16;19.50;99.90
47382;DHT22;33128;51.580;5.170;2023-03-14T10:10:41;19.60;99.90
47382;DHT22;33128;51.580;5.170;2023-03-14T10:13:27;19.50;99.90
47382;DHT22;33128;51.580;5.170;2023-03-14T10:15:55;19.50;99.90
47382;DHT22;33128;51.580;5.170;2023-03-14T10:18:22;19.50;99.90
47382;DHT22;33128;51.580;5.170;2023-03-14T10:21:00;19.50;99.90
47382;DHT22;33128;51.580;5.170;2023-03-14T10:23:29;19.40;99.90
47382;DHT22;33128;51.580;5.170;2023-03-14T10:26:15;19.20;99.90
47382;DHT22;33128;51.580;5.170;2023-03-14T10:28:51;19.10;99.90
47382;DHT22;33128;51.580;5.170;2023-03-14T10:31:18;19.10;99.90
47382;DHT22;33128;51.580;5.170;2023-03-14T10:34:01;19.20;99.90
47382;DHT22;33128;51.580;5.170;2023-03-14T10:36:31;19.30;99.90
47382;DHT22;33128;51.580;5.170;2023-03-14T10:41:50;19.50;99.90
47382;DHT22;33128;51.580;5.170;2023-03-14T10:44:21;19.40;99.90
47382;DHT22;33128;51.580;5.170;2023-03-14T10:46:56;19.30;99.90
47382;DHT22;33128;51.580;5.170;2023-03-14T10:49:30;19.20;99.90
47382;DHT22;33128;51.580;5.170;2023-03-14T10:52:01;19.30;99.90
47382;DHT22;33128;51.580;5.170;2023-03-14T10:54:30;19.30;99.90
47382;DHT22;33128;51.580;5.170;2023-03-14T10:57:00;19.30;99.90
47382;DHT22;33128;51.580;5.170;2023-03-14T10:59:35;19.30;99.90
47382;DHT22;33128;51.580;5.170;2023-03-14T11:04:58;18.80;99.90
47382;DHT22;33128;51.580;5.170;2023-03-14T11:15:27;17.60;99.90
47382;DHT22;33128;51.580;5.170;2023-03-14T11:21:37;17.20;99.90
47382;DHT22;33128;51.580;5.170;2023-03-14T11:26:55;17.00;99.90
47382;DHT22;33128;51.580;5.170;2023-03-14T11:29:28;17.00;99.90
47382;DHT22;33128;51.580;5.170;2023-03-14T11:32:00;16.90;99.90
47382;DHT22;33128;51.580;5.170;2023-03-14T11:37:33;16.90;99.90
47382;DHT22;33128;51.580;5.170;2023-03-14T11:42:44;17.00;99.90
47382;DHT22;33128;51.580;5.170;2023-03-14T11:45:20;17.00;99.90
47382;DHT22;33128;51.580;5.170;2023-03-14T11:50:38;16.60;99.90
47382;DHT22;33128;51.580;5.170;2023-03-14T11:53:34;16.50;99.90
47382;DHT22;33128;51.580;5.170;2023-03-14T11:56:02;16.40;99.90
47382;DHT22;33128;51.580;5.170;2023-03-14T11:58:34;16.40;99.90
47382;DHT22;33128;51.580;5.170;2023-03-14T12:01:08;16.50;99.90
47382;DHT22;33128;51.580;5.170;2023-03-14T12:04:04;16.70;99.90
47382;DHT22;33128;51.580;5.170;2023-03-14T12:06:36;16.80;99.90
47382;DHT22;33128;51.580;5.170;2023-03-14T12:09:06;17.20;99.90
47382;DHT22;33128;51.580;5.170;2023-03-14T12:14:30;18.80;99.90
47382;DHT22;33128;51.580;5.170;2023-03-14T12:17:03;19.50;99.90
47382;DHT22;33128;51.580;5.170;2023-03-14T12:19:31;20.10;99.90
47382;DHT22;33128;51.580;5.170;2023-03-14T12:21:58;20.30;99.90
47382;DHT22;33128;51.580;5.170;2023-03-14T12:24:28;20.90;99.90
47382;DHT22;33128;51.580;5.170;2023-03-14T12:26:57;21.60;99.10
47382;DHT22;33128;51.580;5.170;2023-03-14T12:29:23;22.70;98.40
47382;DHT22;33128;51.580;5.170;2023-03-14T12:32:09;21.80;97.60
47382;DHT22;33128;51.580;5.170;2023-03-14T12:34:42;22.00;97.90
47382;DHT22;33128;51.580;5.170;2023-03-14T12:48:09;25.80;94.30
47382;DHT22;33128;51.580;5.170;2023-03-14T12:53:33;28.00;90.40
47382;DHT22;33128;51.580;5.170;2023-03-14T12:59:15;29.00;86.60
47382;DHT22;33128;51.580;5.170;2023-03-14T13:04:46;29.50;81.70
47382;DHT22;33128;51.580;5.170;2023-03-14T13:10:28;28.10;78.80
47382;DHT22;33128;51.580;5.170;2023-03-14T13:15:46;27.00;78.60
47382;DHT22;33128;51.580;5.170;2023-03-14T13:18:16;27.10;75.80
47382;DHT22;33128;51.580;5.170;2023-03-14T13:23:27;27.40;76.30
47382;DHT22;33128;51.580;5.170;2023-03-14T13:25:53;27.20;75.80
47382;DHT22;33128;51.580;5.170;2023-03-14T13:28:19;26.90;73.60
47382;DHT22;33128;51.580;5.170;2023-03-14T13:30:46;26.70;73.10
47382;DHT22;33128;51.580;5.170;2023-03-14T13:33:21;26.40;73.30
47382;DHT22;33128;51.580;5.170;2023-03-14T13:35:49;26.20;74.60
47382;DHT22;33128;51.580;5.170;2023-03-14T13:38:21;26.10;73.10
47382;DHT22;33128;51.580;5.170;2023-03-14T13:40:49;26.00;73.40
47382;DHT22;33128;51.580;5.170;2023-03-14T13:43:21;25.90;73.80
47382;DHT22;33128;51.580;5.170;2023-03-14T13:46:01;25.30;75.00
47382;DHT22;33128;51.580;5.170;2023-03-14T13:48:29;24.90;75.30
47382;DHT22;33128;51.580;5.170;2023-03-14T13:50:59;24.80;75.20
47382;DHT22;33128;51.580;5.170;2023-03-14T13:53:29;24.20;77.60
47382;DHT22;33128;51.580;5.170;2023-03-14T13:55:55;23.70;77.50
47382;DHT22;33128;51.580;5.170;2023-03-14T13:58:26;23.30;79.90
47382;DHT22;33128;51.580;5.170;2023-03-14T14:01:01;22.90;80.30
47382;DHT22;33128;51.580;5.170;2023-03-14T14:03:27;22.80;81.80
47382;DHT22;33128;51.580;5.170;2023-03-14T14:05:54;23.10;81.20
47382;DHT22;33128;51.580;5.170;2023-03-14T14:08:20;23.20;81.50
47382;DHT22;33128;51.580;5.170;2023-03-14T14:10:47;22.90;82.30
47382;DHT22;33128;51.580;5.170;2023-03-14T14:13:17;22.50;82.30
47382;DHT22;33128;51.580;5.170;2023-03-14T14:15:46;22.00;83.00
47382;DHT22;33128;51.580;5.170;2023-03-14T14:18:17;21.60;84.10
47382;DHT22;33128;51.580;5.170;2023-03-14T14:20:45;21.40;84.60
47382;DHT22;33128;51.580;5.170;2023-03-14T14:23:14;21.10;84.30
47382;DHT22;33128;51.580;5.170;2023-03-14T14:25:43;20.90;85.60
47382;DHT22;33128;51.580;5.170;2023-03-14T14:30:46;21.10;87.00
47382;DHT22;33128;51.580;5.170;2023-03-14T14:33:18;21.20;86.90
47382;DHT22;33128;51.580;5.170;2023-03-14T14:35:50;21.20;86.20
47382;DHT22;33128;51.580;5.170;2023-03-14T14:38:17;21.20;87.10
47382;DHT22;33128;51.580;5.170;2023-03-14T14:40:48;20.90;86.90
47382;DHT22;33128;51.580;5.170;2023-03-14T14:43:27;20.80;88.30
47382;DHT22;33128;51.580;5.170;2023-03-14T14:45:54;20.60;90.00
47382;DHT22;33128;51.580;5.170;2023-03-14T14:48:24;20.60;89.30
47382;DHT22;33128;51.580;5.170;2023-03-14T14:51:04;20.50;90.80
47382;DHT22;33128;51.580;5.170;2023-03-14T14:53:36;20.20;90.00
47382;DHT22;33128;51.580;5.170;2023-03-14T14:56:18;20.00;90.50
47382;DHT22;33128;51.580;5.170;2023-03-14T14:58:48;19.80;90.60
47382;DHT22;33128;51.580;5.170;2023-03-14T15:03:49;19.50;92.10
47382;DHT22;33128;51.580;5.170;2023-03-14T15:06:16;19.40;91.60
47382;DHT22;33128;51.580;5.170;2023-03-14T15:08:43;19.00;92.40
47382;DHT22;33128;51.580;5.170;2023-03-14T15:11:23;18.80;92.40
47382;DHT22;33128;51.580;5.170;2023-03-14T15:13:50;18.50;93.30
47382;DHT22;33128;51.580;5.170;2023-03-14T15:16:27;18.30;93.30
47382;DHT22;33128;51.580;5.170;2023-03-14T15:18:55;18.10;92.20
47382;DHT22;33128;51.580;5.170;2023-03-14T15:21:22;17.80;92.60
47382;DHT22;33128;51.580;5.170;2023-03-14T15:23:48;17.70;93.50
47382;DHT22;33128;51.580;5.170;2023-03-14T15:26:17;17.40;92.20
47382;DHT22;33128;51.580;5.170;2023-03-14T15:28:43;17.10;92.50
47382;DHT22;33128;51.580;5.170;2023-03-14T15:31:10;16.90;93.10
47382;DHT22;33128;51.580;5.170;2023-03-14T15:33:36;16.90;93.00
47382;DHT22;33128;51.580;5.170;2023-03-14T15:36:03;16.90;93.40
47382;DHT22;33128;51.580;5.170;2023-03-14T15:38:29;16.80;93.90
47382;DHT22;33128;51.580;5.170;2023-03-14T15:40:55;16.80;96.30
47382;DHT22;33128;51.580;5.170;2023-03-14T15:43:20;16.80;94.60
47382;DHT22;33128;51.580;5.170;2023-03-14T15:45:46;16.70;93.60
47382;DHT22;33128;51.580;5.170;2023-03-14T15:48:19;16.70;93.60
47382;DHT22;33128;51.580;5.170;2023-03-14T15:50:46;16.60;93.60
47382;DHT22;33128;51.580;5.170;2023-03-14T15:53:12;16.60;94.00
47382;DHT22;33128;51.580;5.170;2023-03-14T15:55:38;16.60;95.10
47382;DHT22;33128;51.580;5.170;2023-03-14T15:58:03;16.50;94.20
47382;DHT22;33128;51.580;5.170;2023-03-14T16:00:29;16.50;96.30
47382;DHT22;33128;51.580;5.170;2023-03-14T16:02:55;16.50;94.30
47382;DHT22;33128;51.580;5.170;2023-03-14T16:05:21;16.50;94.30
47382;DHT22;33128;51.580;5.170;2023-03-14T16:07:47;16.60;94.60
47382;DHT22;33128;51.580;5.170;2023-03-14T16:10:14;16.60;94.60
47382;DHT22;33128;51.580;5.170;2023-03-14T16:12:40;16.60;94.60
47382;DHT22;33128;51.580;5.170;2023-03-14T16:15:07;16.60;95.00
47382;DHT22;33128;51.580;5.170;2023-03-14T16:17:33;16.70;94.80
47382;DHT22;33128;51.580;5.170;2023-03-14T16:19:59;16.70;94.80
47382;DHT22;33128;51.580;5.170;2023-03-14T16:22:25;16.70;94.70
47382;DHT22;33128;51.580;5.170;2023-03-14T16:24:51;16.70;94.90
47382;DHT22;33128;51.580;5.170;2023-03-14T16:27:16;16.60;95.50
47382;DHT22;33128;51.580;5.170;2023-03-14T16:29:42;16.50;94.80
47382;DHT22;33128;51.580;5.170;2023-03-14T16:32:08;16.40;95.10
47382;DHT22;33128;51.580;5.170;2023-03-14T16:34:37;16.40;95.20
47382;DHT22;33128;51.580;5.170;2023-03-14T16:37:04;16.40;95.10
47382;DHT22;33128;51.580;5.170;2023-03-14T16:39:29;16.40;95.30
47382;DHT22;33128;51.580;5.170;2023-03-14T16:41:57;16.30;95.20
47382;DHT22;33128;51.580;5.170;2023-03-14T16:44:26;16.30;95.70
47382;DHT22;33128;51.580;5.170;2023-03-14T16:46:51;16.20;95.30
47382;DHT22;33128;51.580;5.170;2023-03-14T16:49:20;16.20;97.60